ADDS METAR Data INFO
IDs: Format: Raw Decoded Include TAF

Data at: 0102 UTC 24 Aug 2017

KADS 232347Z 07007KT 13SM SKC 30/20 A2993
KADS 232247Z 06007KT 13SM SKC 30/20 A2993
KADS 232147Z 06004KT 13SM FEW040 31/21 A2994
KADS 232055Z 04004KT 13SM SCT039 30/21 A2996
KADS 231947Z 34004KT 13SM SCT040 BKN080 30/20 A2998
KADS 231847Z 33005KT 13SM SCT090 31/20 A3001
KADS 231747Z 00000KT 13SM BKN090 29/20 A3003
KADS 231647Z 0000KT 13SM SCT043 BKN080 28/21 A3004
KADS 231552Z 0000KT 13SM BKN080 27/20 A3005
KADS 231451Z 06008KT 10SM BKN070 BKN080 26/19 A3004
KADS 231347Z 06006KT 10SM SCT055 BKN070 25/20 A3004
KADS 231247Z 06006KT 10SM SKC 24/20 A3003
KADS 231147Z 05006KT 10SM SKC 24/21 A3003
KADS 231053Z 03006KT 10SM DZ SCT040 SCT050 25/21 A3003 RMK LGT VCT
KADS 231035Z AUTO 04008KT 10SM SCT050 BKN070 BKN085 25/21 A3005 RMK AO2 T02450206
KADS 231015Z AUTO 02007KT 10SM SCT050 BKN070 BKN085 24/21 A3005 RMK AO2 LTG DSNT N AND NE T02430207
KADS 230955Z AUTO 02007KT 10SM BKN070 BKN095 24/21 A3005 RMK AO2 LTG DSNT N AND NE T02420209
KADS 230935Z AUTO 03008G17KT 10SM SCT070 25/21 A3005 RMK AO2 T02450210
KADS 230915Z AUTO 02010G16KT 10SM SCT070 SCT085 25/21 A3004 RMK AO2 LTG DSNT N AND NE T02450212
KADS 230855Z AUTO 01010G18KT 10SM SCT075 SCT085 25/22 A3004 RMK AO2 LTG DSNT N T02450215
KADS 230835Z AUTO 01013G21KT 10SM SCT075 25/22 A3003 RMK AO2 LTG DSNT N T02450216
KADS 230815Z AUTO 01017G23KT 10SM CLR 24/22 A3003 RMK AO2 LTG DSNT N T02430220
KADS 230755Z AUTO 36015G21KT 10SM SCT075 SCT090 25/22 A3003 RMK AO2 LTG DSNT N AND W T02460224
KADS 230735Z AUTO 34018G22KT 7SM RA SCT004 BKN075 OVC095 26/23 A3002 RMK AO2 P0003 T02630229
KADS 230715Z AUTO 31007G15KT 10SM SCT041 BKN075 30/21 A3002 RMK AO2 LTG DSNT N T02950213
KADS 230655Z AUTO 15004KT 10SM CLR 29/21 A3000 RMK AO2 LTG DSNT NW T02900212
KADS 230635Z AUTO 15006KT 10SM CLR 29/21 A3001 RMK AO2 LTG DSNT NW T02910211
KADS 230615Z AUTO 14006KT 10SM CLR 30/21 A3001 RMK AO2 T02950211
KADS 230555Z AUTO 15005KT 10SM CLR 29/21 A3001 RMK AO2 LTG DSNT W T02940213 10338 20292 403510260
KADS 230535Z AUTO 15006KT 10SM CLR 29/22 A3000 RMK AO2 LTG DSNT N T02930215
KADS 230515Z AUTO 15006KT 10SM CLR 30/22 A3001 RMK AO2 T02990215
KADS 230455Z AUTO 14006KT 10SM CLR 30/22 A3001 RMK AO2 LTG DSNT W T03020215
KADS 230435Z AUTO 14005KT 10SM CLR 30/21 A3001 RMK AO2 T03020212
KADS 230415Z AUTO 13005KT 10SM CLR 31/21 A3002 RMK AO2 LTG DSNT W T03060211
KADS 230355Z AUTO 12007KT 10SM CLR 31/21 A3002 RMK AO2 T03100210
KADS 230335Z AUTO 14007KT 10SM CLR 31/21 A3001 RMK AO2 T03110209
KADS 230315Z AUTO 14006KT 10SM CLR 31/21 A3001 RMK AO2 T03100209
KADS 230247Z 12007KT 13SM SKC 32/20 A2999 RMK LAST WX
KADS 230147Z 13008G15KT 13SM SKC 32/20 A2996
KADS 222347Z 11007KT 13SM FEW060 34/17 A2996
KADS 222247Z 12007KT 13SM FEW060 34/18 A2997
KADS 222151Z 12008KT 13SM SCT050 34/19 A2998
KADS 222047Z 00000KT 13SM SCT060 34/19 A3000
KADS 221947Z 19003KT 13SM SCT060 34/19 A3003
KADS 221847Z 27006KT 13SM FEW050 34/19 A3005
KADS 221747Z 19003KT 13SM SKC 33/20 A3007
KADS 221647Z 19004KT 10SM SKC 32/21 A3008
KADS 221547Z 24006KT 10SM SKC 31/21 A3008
KADS 221447Z 25007KT 10SM SKC 30/21 A3008
KADS 221347Z 24005KT 10SM SKC 28/22 A3007